createdAt,value
2022-09-07T00:00:53.025Z,0.00
2022-09-07T00:01:53.012Z,0.00
2022-09-07T00:02:53.051Z,0.00
2022-09-07T00:03:53.037Z,0.00
2022-09-07T00:04:52.976Z,0.00
2022-09-07T00:05:52.945Z,0.00
2022-09-07T00:06:52.970Z,0.00
2022-09-07T00:07:52.922Z,0.00
2022-09-07T00:08:52.925Z,0.00
2022-09-07T00:09:52.904Z,0.00
2022-09-07T00:10:52.940Z,0.00
2022-09-07T00:11:52.869Z,0.00
2022-09-07T00:12:52.859Z,0.00
2022-09-07T00:13:52.867Z,0.00
2022-09-07T00:14:52.847Z,0.00
2022-09-07T00:15:52.859Z,0.00
2022-09-07T00:16:52.821Z,0.00
2022-09-07T00:17:52.797Z,0.00
2022-09-07T00:18:52.803Z,0.00
2022-09-07T00:19:52.777Z,0.00
2022-09-07T00:20:52.793Z,0.00
2022-09-07T00:21:52.726Z,0.00
2022-09-07T00:22:52.730Z,0.00
2022-09-07T00:23:52.735Z,0.00
2022-09-07T00:24:52.713Z,0.00
2022-09-07T00:25:54.245Z,0.00
2022-09-07T00:26:52.680Z,0.00
2022-09-07T00:27:52.659Z,0.00
2022-09-07T00:28:52.652Z,0.00
2022-09-07T00:29:52.642Z,0.00
2022-09-07T00:30:52.622Z,0.00
2022-09-07T00:31:52.658Z,0.00
2022-09-07T00:32:52.605Z,0.00
2022-09-07T00:33:52.612Z,0.00
2022-09-07T00:34:52.575Z,0.00
2022-09-07T00:35:52.571Z,0.00
2022-09-07T00:36:52.543Z,0.00
2022-09-07T00:37:52.536Z,0.00
2022-09-07T00:38:52.541Z,0.00
2022-09-07T00:39:52.599Z,0.00
2022-09-07T00:40:52.506Z,0.00
2022-09-07T00:41:52.484Z,0.00
2022-09-07T00:42:52.462Z,0.00
2022-09-07T00:43:52.474Z,0.00
2022-09-07T00:44:52.449Z,0.00
2022-09-07T00:45:52.444Z,0.00
2022-09-07T00:46:52.456Z,0.00
2022-09-07T00:47:52.408Z,0.00
2022-09-07T00:48:52.424Z,0.00
2022-09-07T00:49:52.396Z,0.00
2022-09-07T00:50:52.379Z,0.00
2022-09-07T00:51:52.357Z,0.00
2022-09-07T00:52:52.355Z,0.00
2022-09-07T00:53:52.408Z,0.00
2022-09-07T00:54:52.346Z,0.00
2022-09-07T00:55:52.311Z,0.00
2022-09-07T00:56:52.288Z,0.00
2022-09-07T00:57:52.301Z,0.00
2022-09-07T00:58:52.327Z,0.00
2022-09-07T00:59:52.258Z,0.00
2022-09-07T01:00:52.238Z,0.00
2022-09-07T01:01:52.370Z,0.00
2022-09-07T01:02:52.327Z,0.00
2022-09-07T01:03:52.207Z,0.00
2022-09-07T01:04:52.199Z,0.00
2022-09-07T01:05:52.181Z,0.00
2022-09-07T01:06:52.166Z,0.00
2022-09-07T01:07:52.141Z,0.00
2022-09-07T01:08:52.142Z,0.00
2022-09-07T01:09:52.152Z,0.00
2022-09-07T01:10:52.114Z,0.00
2022-09-07T01:11:52.081Z,0.00
2022-09-07T01:12:52.064Z,0.00
2022-09-07T01:13:52.060Z,0.00
2022-09-07T01:14:52.082Z,0.00
2022-09-07T01:15:52.123Z,0.00
2022-09-07T01:16:52.011Z,0.00
2022-09-07T01:17:52.041Z,0.00
2022-09-07T01:18:51.992Z,0.00
2022-09-07T01:19:52.035Z,0.00
2022-09-07T01:20:51.972Z,0.00
2022-09-07T01:21:51.963Z,0.00
2022-09-07T01:22:51.952Z,0.00
2022-09-07T01:23:51.944Z,0.00
2022-09-07T01:24:51.934Z,0.00
2022-09-07T01:25:51.913Z,0.00
2022-09-07T01:26:51.883Z,0.00
2022-09-07T01:27:51.915Z,0.00
2022-09-07T01:28:51.882Z,0.00
2022-09-07T01:29:51.881Z,0.00
2022-09-07T01:30:52.851Z,0.00
2022-09-07T01:31:51.855Z,0.00
2022-09-07T01:32:51.836Z,0.00
2022-09-07T01:33:51.795Z,0.00
2022-09-07T01:34:51.808Z,0.00
2022-09-07T01:35:51.786Z,0.00
2022-09-07T01:36:51.756Z,0.00
2022-09-07T01:37:56.330Z,0.00
2022-09-07T01:38:52.757Z,0.00
2022-09-07T01:39:51.781Z,0.00
2022-09-07T01:40:51.715Z,0.00
2022-09-07T01:41:51.708Z,0.00
2022-09-07T01:42:51.687Z,0.00
2022-09-07T01:43:51.685Z,0.00
2022-09-07T01:44:51.697Z,0.00
2022-09-07T01:45:51.667Z,0.00
2022-09-07T01:46:51.633Z,0.00
2022-09-07T01:47:51.628Z,0.00
2022-09-07T01:48:51.657Z,0.00
2022-09-07T01:49:51.591Z,0.00
2022-09-07T01:50:51.599Z,0.00
2022-09-07T01:51:51.569Z,0.00
2022-09-07T01:52:51.559Z,0.00
2022-09-07T01:53:51.553Z,0.00
2022-09-07T01:54:51.569Z,0.00
2022-09-07T01:55:51.520Z,0.00
2022-09-07T01:56:51.509Z,0.00
2022-09-07T01:57:51.508Z,0.00
2022-09-07T01:58:51.492Z,0.00
2022-09-07T01:59:51.470Z,0.00
2022-09-07T02:00:51.451Z,0.00
2022-09-07T02:01:51.507Z,0.00
2022-09-07T02:02:51.463Z,0.00
2022-09-07T02:03:51.421Z,0.00
2022-09-07T02:04:51.441Z,0.00
2022-09-07T02:05:51.392Z,0.00
2022-09-07T02:06:51.370Z,0.00
2022-09-07T02:07:51.378Z,0.00
2022-09-07T02:08:51.352Z,0.00
2022-09-07T02:09:51.357Z,0.00
2022-09-07T02:10:51.340Z,0.00
2022-09-07T02:11:51.332Z,0.00
2022-09-07T02:12:51.305Z,0.00
2022-09-07T02:13:51.300Z,0.00
2022-09-07T02:14:52.860Z,0.00
2022-09-07T02:15:51.358Z,0.00
2022-09-07T02:16:51.255Z,0.00
2022-09-07T02:17:51.247Z,0.00
2022-09-07T02:18:51.217Z,0.00
2022-09-07T02:19:51.232Z,0.00
2022-09-07T02:20:51.194Z,0.00
2022-09-07T02:21:51.174Z,0.00
2022-09-07T02:22:51.168Z,0.00
2022-09-07T02:23:51.156Z,0.00
2022-09-07T02:24:51.167Z,0.00
2022-09-07T02:25:51.127Z,0.00
2022-09-07T02:26:51.116Z,0.00
2022-09-07T02:27:51.113Z,0.00
2022-09-07T02:28:51.096Z,0.00
2022-09-07T02:29:51.099Z,0.00
2022-09-07T02:30:51.110Z,0.00
2022-09-07T02:31:51.088Z,0.00
2022-09-07T02:32:51.034Z,0.00
2022-09-07T02:33:51.044Z,0.00
2022-09-07T02:34:51.050Z,0.00
2022-09-07T02:35:51.008Z,0.00
2022-09-07T02:36:50.986Z,0.00
2022-09-07T02:37:50.990Z,0.00
2022-09-07T02:38:50.959Z,0.00
2022-09-07T02:39:51.043Z,0.00
2022-09-07T02:40:50.949Z,0.00
2022-09-07T02:41:50.938Z,0.00
2022-09-07T02:42:50.908Z,0.00
2022-09-07T02:43:50.915Z,0.00
2022-09-07T02:44:50.900Z,0.00
2022-09-07T02:45:50.896Z,0.00
2022-09-07T02:46:50.861Z,0.00
2022-09-07T02:47:50.851Z,0.00
2022-09-07T02:48:50.829Z,0.00
2022-09-07T02:49:50.842Z,0.00
2022-09-07T02:50:50.817Z,0.00
2022-09-07T02:51:50.809Z,0.00
2022-09-07T02:52:50.794Z,0.00
2022-09-07T02:53:50.791Z,0.00
2022-09-07T02:54:50.780Z,0.00
2022-09-07T02:55:50.780Z,0.00
2022-09-07T02:56:50.968Z,0.00
2022-09-07T02:57:50.797Z,0.00
2022-09-07T02:58:50.814Z,0.00
2022-09-07T02:59:50.762Z,0.00
2022-09-07T03:00:50.737Z,0.00
2022-09-07T03:01:50.752Z,0.00
2022-09-07T03:02:50.698Z,0.00
2022-09-07T03:03:50.753Z,0.00
2022-09-07T03:04:50.689Z,0.00
2022-09-07T03:05:50.613Z,0.00
2022-09-07T03:06:50.664Z,0.00
2022-09-07T03:07:50.595Z,0.00
2022-09-07T03:08:50.667Z,0.00
2022-09-07T03:09:50.602Z,0.00
2022-09-07T03:10:50.585Z,0.00
2022-09-07T03:11:50.538Z,0.00
2022-09-07T03:12:50.592Z,0.00
2022-09-07T03:13:50.734Z,0.00
2022-09-07T03:14:50.538Z,0.00
2022-09-07T03:15:55.572Z,0.00
2022-09-07T03:16:51.548Z,0.00
2022-09-07T03:17:50.547Z,0.00
2022-09-07T03:18:50.535Z,0.00
2022-09-07T03:19:53.759Z,0.00
2022-09-07T03:20:50.450Z,0.00
2022-09-07T03:21:50.455Z,0.00
2022-09-07T03:22:50.457Z,0.00
2022-09-07T03:23:51.937Z,0.00
2022-09-07T03:24:50.388Z,0.00
2022-09-07T03:25:50.358Z,0.00
2022-09-07T03:26:50.423Z,0.00
2022-09-07T03:27:50.332Z,0.00
2022-09-07T03:28:50.318Z,0.00
2022-09-07T03:29:50.332Z,0.00
2022-09-07T03:30:50.393Z,0.00
2022-09-07T03:31:50.282Z,0.00
2022-09-07T03:32:50.332Z,0.00
2022-09-07T03:33:50.339Z,0.00
2022-09-07T03:34:50.368Z,0.00
2022-09-07T03:35:50.289Z,0.00
2022-09-07T03:36:50.221Z,0.00
2022-09-07T03:37:50.271Z,0.00
2022-09-07T03:38:50.282Z,0.00
2022-09-07T03:39:50.269Z,0.00
2022-09-07T03:40:50.196Z,0.00
2022-09-07T03:41:52.854Z,0.00
2022-09-07T03:44:00.366Z,0.00
2022-09-07T03:45:00.457Z,0.00
2022-09-07T03:46:00.426Z,0.00
2022-09-07T03:47:00.366Z,0.00
2022-09-07T03:48:00.357Z,0.00
2022-09-07T03:49:01.317Z,0.00
2022-09-07T03:50:00.414Z,0.00
2022-09-07T04:03:40.802Z,0.00
2022-09-07T04:04:40.789Z,0.00
2022-09-07T04:05:40.759Z,0.00
2022-09-07T04:06:40.754Z,0.00
2022-09-07T04:07:40.759Z,0.00
2022-09-07T04:08:40.719Z,0.00
2022-09-07T04:09:40.745Z,0.00
2022-09-07T04:10:40.690Z,0.00
2022-09-07T04:11:40.693Z,0.00
2022-09-07T04:12:40.672Z,0.00
2022-09-07T04:13:40.675Z,0.00
2022-09-07T04:14:40.665Z,0.00
2022-09-07T04:15:40.632Z,0.00
2022-09-07T04:16:48.181Z,0.00
2022-09-07T04:17:40.611Z,0.00
2022-09-07T04:18:40.602Z,0.00
2022-09-07T04:19:40.598Z,0.00
2022-09-07T04:20:40.573Z,0.00
2022-09-07T04:21:40.574Z,0.00
2022-09-07T04:22:40.562Z,0.00
2022-09-07T04:23:40.540Z,0.00
2022-09-07T04:24:40.522Z,0.00
2022-09-07T04:25:40.529Z,0.00
2022-09-07T04:26:40.492Z,0.00
2022-09-07T04:27:41.473Z,0.00
2022-09-07T04:28:40.472Z,0.00
2022-09-07T04:29:40.482Z,0.00
2022-09-07T04:30:40.476Z,0.00
2022-09-07T04:31:40.435Z,0.00
2022-09-07T04:32:40.413Z,0.00
2022-09-07T04:33:40.457Z,0.00
2022-09-07T04:34:40.416Z,0.00
2022-09-07T04:35:40.375Z,0.00
2022-09-07T04:36:40.373Z,0.00
2022-09-07T04:37:40.335Z,0.00
2022-09-07T04:38:40.327Z,0.00
2022-09-07T04:39:40.421Z,0.00
2022-09-07T04:40:40.305Z,0.00
2022-09-07T04:41:40.296Z,0.00
2022-09-07T04:42:40.308Z,0.00
2022-09-07T04:43:40.284Z,0.00
2022-09-07T04:44:40.267Z,0.00
2022-09-07T04:45:40.270Z,0.00
2022-09-07T04:46:40.218Z,0.00
2022-09-07T04:47:40.228Z,0.00
2022-09-07T04:48:40.212Z,0.00
2022-09-07T04:49:40.205Z,5.62
2022-09-07T04:50:40.178Z,5.62
2022-09-07T04:51:40.169Z,5.62
2022-09-07T04:52:40.177Z,5.62
2022-09-07T04:53:40.138Z,5.62
2022-09-07T04:54:40.139Z,5.62
2022-09-07T04:55:40.109Z,5.62
2022-09-07T04:56:40.099Z,5.62
2022-09-07T04:57:40.092Z,5.62
2022-09-07T04:58:40.103Z,5.62
2022-09-07T04:59:40.068Z,5.62
2022-09-07T05:00:40.068Z,5.62
2022-09-07T05:01:40.065Z,5.62
2022-09-07T05:02:40.099Z,5.62
2022-09-07T05:03:40.056Z,5.62
2022-09-07T05:04:40.032Z,11.25
2022-09-07T05:05:39.991Z,11.25
2022-09-07T05:06:40.066Z,11.25
2022-09-07T05:07:39.967Z,11.25
2022-09-07T05:08:39.981Z,16.88
2022-09-07T05:09:40.018Z,16.88
2022-09-07T05:10:39.912Z,22.50
2022-09-07T05:11:39.911Z,22.50
2022-09-07T05:12:39.911Z,22.50
2022-09-07T05:13:39.892Z,22.50
2022-09-07T05:14:39.883Z,28.12
2022-09-07T05:15:39.865Z,28.12
2022-09-07T05:16:39.879Z,28.12
2022-09-07T05:17:39.854Z,28.12
2022-09-07T05:18:39.835Z,28.12
2022-09-07T05:19:39.835Z,28.12
2022-09-07T05:20:39.792Z,28.12
2022-09-07T05:21:39.784Z,28.12
2022-09-07T05:22:39.786Z,22.50
2022-09-07T05:23:40.754Z,22.50
2022-09-07T05:24:39.745Z,16.88
2022-09-07T05:25:39.758Z,16.88
2022-09-07T05:26:39.718Z,16.88
2022-09-07T05:27:39.705Z,16.88
2022-09-07T05:28:40.725Z,16.88
2022-09-07T05:31:40.676Z,16.88
2022-09-07T05:32:39.636Z,16.88
2022-09-07T05:34:40.648Z,16.88
2022-09-07T05:35:39.629Z,16.88
2022-09-07T05:36:39.598Z,16.88
2022-09-07T05:37:39.567Z,16.88
2022-09-07T05:38:40.574Z,16.88
2022-09-07T05:39:39.620Z,16.88
2022-09-07T05:40:40.810Z,11.25
2022-09-07T05:41:39.531Z,11.25
2022-09-07T05:42:39.507Z,16.88
2022-09-07T05:44:43.931Z,16.88
2022-09-07T05:45:39.536Z,16.88
2022-09-07T05:46:39.458Z,11.25
2022-09-07T05:47:39.452Z,11.25
2022-09-07T05:48:39.449Z,11.25
2022-09-07T05:49:39.420Z,11.25
2022-09-07T05:50:39.443Z,11.25
2022-09-07T05:51:39.398Z,11.25
2022-09-07T05:52:39.370Z,11.25
2022-09-07T05:53:39.379Z,16.88
2022-09-07T05:54:39.340Z,16.88
2022-09-07T05:55:39.342Z,16.88
2022-09-07T05:56:39.335Z,16.88
2022-09-07T05:57:39.314Z,16.88
2022-09-07T05:58:40.337Z,16.88
2022-09-07T05:59:39.319Z,16.88
2022-09-07T06:00:39.287Z,16.88
2022-09-07T06:01:39.334Z,16.88
2022-09-07T06:02:39.984Z,22.50
2022-09-07T06:03:39.334Z,28.12
2022-09-07T06:04:39.244Z,28.12
2022-09-07T06:05:39.213Z,33.75
2022-09-07T06:06:39.205Z,33.75
2022-09-07T06:07:39.186Z,33.75
2022-09-07T06:08:39.174Z,33.75
2022-09-07T06:11:39.134Z,39.38
2022-09-07T06:12:39.132Z,39.38
2022-09-07T06:13:39.115Z,39.38
2022-09-07T06:14:39.108Z,39.38
2022-09-07T06:15:39.107Z,39.38
2022-09-07T06:16:39.206Z,39.38
2022-09-07T06:17:39.056Z,39.38
2022-09-07T06:18:39.054Z,33.75
2022-09-07T06:19:40.027Z,33.75
2022-09-07T06:20:39.017Z,33.75
2022-09-07T06:21:39.017Z,28.12
2022-09-07T06:22:39.018Z,28.12
2022-09-07T06:23:38.998Z,33.75
2022-09-07T06:24:38.966Z,33.75
2022-09-07T06:25:38.968Z,39.38
2022-09-07T06:26:38.927Z,39.38
2022-09-07T06:27:38.927Z,45.00
2022-09-07T06:28:38.952Z,50.62
2022-09-07T06:29:39.918Z,50.62
2022-09-07T06:30:38.898Z,56.25
2022-09-07T06:32:43.028Z,56.25
2022-09-07T06:33:38.880Z,56.25
2022-09-07T06:34:39.852Z,61.88
2022-09-07T06:35:38.850Z,61.88
2022-09-07T06:36:38.822Z,67.50
2022-09-07T06:37:38.802Z,67.50
2022-09-07T06:38:38.801Z,61.88
2022-09-07T06:39:38.854Z,61.88
2022-09-07T06:40:38.750Z,56.25
2022-09-07T06:42:39.736Z,56.25
2022-09-07T06:43:42.849Z,56.25
2022-09-07T06:44:39.741Z,56.25
2022-09-07T06:45:38.734Z,56.25
2022-09-07T06:47:39.672Z,56.25
2022-09-07T06:48:42.495Z,50.62
2022-09-07T06:49:39.653Z,50.62
2022-09-07T06:50:38.633Z,50.62
2022-09-07T06:51:38.647Z,50.62
2022-09-07T06:53:41.858Z,61.88
2022-09-07T06:55:39.573Z,61.88
2022-09-07T06:56:38.563Z,61.88
2022-09-07T06:57:38.564Z,56.25
2022-09-07T06:58:42.317Z,56.25
2022-09-07T06:59:38.520Z,61.88
2022-09-07T07:00:38.528Z,67.50
2022-09-07T07:01:38.505Z,73.12
2022-09-07T07:02:38.465Z,78.75
2022-09-07T07:03:38.558Z,78.75
2022-09-07T07:04:41.009Z,73.12
2022-09-07T07:05:39.460Z,73.12
2022-09-07T07:06:38.436Z,78.75
2022-09-07T07:07:38.423Z,78.75
2022-09-07T07:08:38.397Z,78.75
2022-09-07T07:09:38.397Z,78.75
2022-09-07T07:10:38.367Z,78.75
2022-09-07T07:11:38.398Z,73.12
2022-09-07T07:13:09.363Z,78.75
2022-09-07T07:14:09.352Z,78.75
2022-09-07T07:15:09.326Z,84.38
2022-09-07T07:16:09.379Z,78.75
2022-09-07T07:17:09.339Z,78.75
2022-09-07T07:18:20.925Z,73.12
2022-09-07T07:19:10.297Z,73.12
2022-09-07T07:20:09.323Z,73.12
2022-09-07T07:21:09.274Z,78.75
2022-09-07T07:22:45.740Z,84.38
2022-09-07T07:23:10.246Z,84.38
2022-09-07T07:24:09.248Z,78.75
2022-09-07T07:25:09.211Z,73.12
2022-09-07T07:26:09.208Z,61.88
2022-09-07T07:27:09.177Z,56.25
2022-09-07T07:29:10.171Z,50.62
2022-09-07T07:30:09.144Z,56.25
2022-09-07T07:31:12.930Z,56.25
2022-09-07T07:32:09.118Z,56.25
2022-09-07T07:33:09.178Z,61.88
2022-09-07T07:34:09.134Z,67.50
2022-09-07T07:35:09.071Z,67.50
2022-09-07T07:36:10.070Z,73.12
2022-09-07T07:37:09.103Z,78.75
2022-09-07T07:40:19.784Z,84.38
2022-09-07T07:42:09.984Z,73.12
2022-09-07T07:43:08.991Z,73.12
2022-09-07T07:44:08.962Z,67.50
2022-09-07T07:46:10.005Z,67.50
2022-09-07T07:47:08.941Z,67.50
2022-09-07T07:48:08.913Z,67.50
2022-09-07T07:49:08.903Z,67.50
2022-09-07T07:51:12.098Z,61.88
2022-09-07T07:54:09.845Z,56.25
2022-09-07T07:56:09.816Z,50.62
2022-09-07T07:57:09.813Z,50.62
2022-09-07T07:58:08.797Z,45.00
2022-09-07T07:59:12.566Z,45.00
2022-09-07T08:00:09.776Z,39.38
2022-09-07T08:01:08.795Z,39.38
2022-09-07T08:02:09.984Z,39.38
2022-09-07T08:03:08.745Z,39.38
2022-09-07T08:04:08.717Z,39.38
2022-09-07T08:05:08.687Z,45.00
2022-09-07T08:06:08.686Z,50.62
2022-09-07T08:07:11.005Z,50.62
2022-09-07T08:08:08.657Z,45.00
2022-09-07T08:09:08.658Z,45.00
2022-09-07T08:10:08.643Z,45.00
2022-09-07T08:11:08.632Z,50.62
2022-09-07T08:12:09.611Z,50.62
2022-09-07T08:13:08.599Z,50.62
2022-09-07T08:14:08.669Z,50.62
2022-09-07T08:15:08.589Z,50.62
2022-09-07T08:16:08.587Z,50.62
2022-09-07T08:17:08.603Z,50.62
2022-09-07T08:18:09.550Z,50.62
2022-09-07T08:19:08.530Z,50.62
2022-09-07T08:20:08.502Z,56.25
2022-09-07T08:21:08.503Z,56.25
2022-09-07T08:22:08.499Z,56.25
2022-09-07T08:23:09.637Z,56.25
2022-09-07T08:24:08.473Z,56.25
2022-09-07T08:25:08.452Z,56.25
2022-09-07T08:26:08.465Z,56.25
2022-09-07T08:27:08.440Z,56.25
2022-09-07T08:28:08.448Z,50.62
2022-09-07T08:29:08.413Z,50.62
2022-09-07T08:30:08.392Z,56.25
2022-09-07T08:31:08.413Z,56.25
2022-09-07T08:32:08.374Z,56.25
2022-09-07T08:33:10.373Z,56.25
2022-09-07T08:34:08.344Z,56.25
2022-09-07T08:35:08.344Z,56.25
2022-09-07T08:36:08.366Z,56.25
2022-09-07T08:37:08.296Z,56.25
2022-09-07T08:38:08.303Z,56.25
2022-09-07T08:39:08.321Z,61.88
2022-09-07T08:40:08.373Z,61.88
2022-09-07T08:41:08.266Z,67.50
2022-09-07T08:42:08.245Z,67.50
2022-09-07T08:43:08.241Z,67.50
2022-09-07T08:44:08.250Z,73.12
2022-09-07T08:45:09.198Z,73.12
2022-09-07T08:46:08.215Z,73.12
2022-09-07T08:47:08.193Z,73.12
2022-09-07T08:48:08.200Z,73.12
2022-09-07T08:49:08.177Z,73.12
2022-09-07T08:50:08.139Z,73.12
2022-09-07T08:51:08.133Z,73.12
2022-09-07T08:52:08.187Z,73.12
2022-09-07T08:53:08.109Z,73.12
2022-09-07T08:54:08.099Z,78.75
2022-09-07T08:55:08.103Z,78.75
2022-09-07T08:56:08.080Z,78.75
2022-09-07T08:57:23.440Z,84.38
2022-09-07T08:58:18.126Z,73.12
2022-09-07T08:59:09.040Z,90.00
2022-09-07T09:00:08.030Z,95.62
2022-09-07T09:04:17.247Z,101.25
2022-09-07T09:05:17.445Z,101.25
2022-09-07T09:06:09.047Z,101.25
2022-09-07T09:07:08.062Z,101.25
2022-09-07T09:08:07.909Z,101.25
2022-09-07T09:09:08.903Z,106.88
2022-09-07T09:10:07.873Z,106.88
2022-09-07T09:11:07.865Z,106.88
2022-09-07T09:12:07.855Z,106.88
2022-09-07T09:13:07.865Z,95.62
2022-09-07T09:14:07.824Z,95.62
2022-09-07T09:15:07.815Z,112.50
2022-09-07T09:16:07.864Z,112.50
2022-09-07T09:17:07.797Z,112.50
2022-09-07T09:18:10.115Z,106.88
2022-09-07T09:19:08.746Z,106.88
2022-09-07T09:20:07.766Z,106.88
2022-09-07T09:21:07.755Z,106.88
2022-09-07T09:22:07.714Z,106.88
2022-09-07T09:23:07.707Z,106.88
2022-09-07T09:24:07.696Z,101.25
2022-09-07T09:25:07.689Z,101.25
2022-09-07T09:26:07.667Z,106.88
2022-09-07T09:27:07.657Z,112.50
2022-09-07T09:28:07.630Z,106.88
2022-09-07T09:29:07.668Z,106.88
2022-09-07T09:30:07.613Z,106.88
2022-09-07T09:31:07.646Z,106.88
2022-09-07T09:32:07.589Z,106.88
2022-09-07T09:33:07.558Z,101.25
2022-09-07T09:34:07.570Z,106.88
2022-09-07T09:35:08.569Z,106.88
2022-09-07T09:36:07.531Z,112.50
2022-09-07T09:37:07.522Z,95.62
2022-09-07T09:38:07.505Z,112.50
2022-09-07T09:39:07.494Z,118.12
2022-09-07T09:40:07.545Z,123.75
2022-09-07T09:41:08.472Z,123.75
2022-09-07T09:42:07.451Z,129.38
2022-09-07T09:43:07.451Z,129.38
2022-09-07T09:44:07.465Z,129.38
2022-09-07T09:45:08.413Z,135.00
2022-09-07T09:46:14.622Z,135.00
2022-09-07T10:04:01.451Z,135.00
2022-09-07T10:04:45.468Z,135.00
2022-09-07T10:05:44.470Z,140.62
2022-09-07T10:06:44.439Z,140.62
2022-09-07T10:07:44.438Z,140.62
2022-09-07T10:08:44.419Z,140.62
2022-09-07T10:09:44.443Z,146.25
2022-09-07T10:10:44.405Z,146.25
2022-09-07T10:12:45.407Z,157.50
2022-09-07T10:13:44.351Z,163.12
2022-09-07T10:14:44.373Z,168.75
2022-09-07T10:15:44.372Z,168.75
2022-09-07T10:16:44.315Z,168.75
2022-09-07T10:17:44.320Z,163.12
2022-09-07T10:18:44.307Z,163.12
2022-09-07T10:19:44.303Z,168.75
2022-09-07T10:20:44.276Z,157.50
2022-09-07T10:21:45.254Z,123.75
2022-09-07T10:22:46.613Z,168.75
2022-09-07T10:23:44.245Z,168.75
2022-09-07T10:24:44.234Z,174.38
2022-09-07T10:25:44.218Z,180.00
2022-09-07T10:26:45.194Z,185.62
2022-09-07T10:27:44.197Z,202.50
2022-09-07T10:29:45.155Z,270.00
2022-09-07T10:30:44.189Z,270.00
2022-09-07T10:31:44.199Z,292.50
2022-09-07T10:32:44.107Z,309.38
2022-09-07T10:34:25.372Z,303.75
2022-09-07T10:34:45.128Z,241.88
2022-09-07T10:35:44.084Z,292.50
2022-09-07T10:36:44.057Z,292.50
2022-09-07T10:37:44.057Z,281.25
2022-09-07T10:38:44.037Z,281.25
2022-09-07T10:39:44.077Z,286.88
2022-09-07T10:40:44.030Z,208.12
2022-09-07T10:41:44.035Z,157.50
2022-09-07T10:43:20.643Z,202.50
2022-09-07T10:43:44.973Z,146.25
2022-09-07T10:44:43.961Z,151.88
2022-09-07T10:45:43.963Z,163.12
2022-09-07T10:46:59.427Z,185.62
2022-09-07T10:47:44.929Z,196.88
2022-09-07T10:48:43.926Z,219.38
2022-09-07T10:50:21.914Z,303.75
2022-09-07T10:50:44.934Z,298.12
2022-09-07T10:51:43.882Z,275.62
2022-09-07T10:52:43.867Z,253.12
2022-09-07T10:53:44.888Z,253.12
2022-09-07T10:54:43.833Z,253.12
2022-09-07T10:55:43.843Z,258.75
2022-09-07T10:56:44.803Z,270.00
2022-09-07T10:57:48.763Z,292.50
2022-09-07T11:00:44.757Z,320.62
2022-09-07T11:01:43.789Z,281.25
2022-09-07T11:03:25.026Z,281.25
2022-09-07T11:03:45.173Z,286.88
2022-09-07T11:04:43.708Z,258.75
2022-09-07T11:05:43.717Z,241.88
2022-09-07T11:06:43.690Z,236.25
2022-09-07T11:07:43.660Z,236.25
2022-09-07T11:09:44.639Z,225.00
2022-09-07T11:10:43.691Z,202.50
2022-09-07T11:12:44.619Z,247.50
2022-09-07T11:14:02.070Z,241.88
2022-09-07T11:14:44.652Z,180.00
2022-09-07T11:15:43.640Z,196.88
2022-09-07T11:16:51.335Z,241.88
2022-09-07T11:17:45.868Z,326.25
2022-09-07T11:18:43.556Z,343.12
2022-09-07T11:19:43.539Z,230.62
2022-09-07T11:20:43.553Z,191.25
2022-09-07T11:21:58.756Z,180.00
2022-09-07T11:22:44.502Z,264.38
2022-09-07T11:23:43.486Z,286.88
2022-09-07T11:24:43.580Z,247.50
2022-09-07T11:25:43.480Z,292.50
2022-09-07T11:26:43.444Z,241.88
2022-09-07T11:27:43.461Z,219.38
2022-09-07T11:28:43.438Z,275.62
2022-09-07T11:29:43.424Z,281.25
2022-09-07T11:30:43.468Z,292.50
2022-09-07T11:31:43.397Z,286.88
2022-09-07T11:32:43.385Z,230.62
2022-09-07T11:34:23.888Z,286.88
2022-09-07T11:34:45.211Z,315.00
2022-09-07T11:35:43.345Z,326.25
2022-09-07T11:36:43.315Z,219.38
2022-09-07T11:37:43.318Z,202.50
2022-09-07T11:38:43.295Z,241.88
2022-09-07T11:39:44.348Z,253.12
2022-09-07T11:40:43.285Z,180.00
2022-09-07T11:41:43.270Z,168.75
2022-09-07T11:42:43.833Z,258.75
2022-09-07T11:43:43.240Z,275.62
2022-09-07T11:44:46.095Z,281.25
2022-09-07T11:45:43.210Z,281.25
2022-09-07T11:46:43.267Z,303.75
2022-09-07T11:47:43.194Z,326.25
2022-09-07T11:48:43.160Z,315.00
2022-09-07T11:49:45.409Z,360.00
2022-09-07T11:50:44.152Z,388.12
2022-09-07T11:51:43.151Z,360.00
2022-09-07T11:52:43.119Z,292.50
2022-09-07T11:53:43.126Z,315.00
2022-09-07T11:54:43.099Z,258.75
2022-09-07T11:55:43.085Z,230.62
2022-09-07T11:56:45.641Z,320.62
2022-09-07T11:57:43.054Z,326.25
2022-09-07T11:58:43.046Z,331.88
2022-09-07T11:59:43.038Z,320.62
2022-09-07T12:00:43.013Z,315.00
2022-09-07T12:01:43.003Z,331.88
2022-09-07T12:02:58.934Z,365.62
2022-09-07T12:03:44.115Z,388.12
2022-09-07T12:04:43.028Z,196.88
2022-09-07T12:05:43.029Z,264.38
2022-09-07T12:06:42.934Z,393.75
2022-09-07T12:07:42.934Z,388.12
2022-09-07T12:09:03.898Z,371.25
2022-09-07T12:09:42.922Z,376.88
2022-09-07T12:10:42.897Z,360.00
2022-09-07T12:11:43.869Z,360.00
2022-09-07T12:12:42.906Z,376.88
2022-09-07T12:13:42.848Z,410.62
2022-09-07T12:14:42.831Z,433.12
2022-09-07T12:15:42.857Z,365.62
2022-09-07T12:16:43.807Z,556.88
2022-09-07T12:17:42.810Z,225.00
2022-09-07T12:18:42.781Z,213.75
2022-09-07T12:19:42.769Z,264.38
2022-09-07T12:20:43.783Z,624.38
2022-09-07T12:21:42.757Z,421.88
2022-09-07T12:22:42.722Z,3048.75
2022-09-07T12:23:42.723Z,2840.62
2022-09-07T12:24:42.720Z,1918.12
2022-09-07T12:25:42.694Z,382.50
2022-09-07T12:26:42.695Z,2936.25
2022-09-07T12:27:42.704Z,376.88
2022-09-07T12:28:42.653Z,2463.75
2022-09-07T12:29:45.740Z,2593.12
2022-09-07T12:30:42.639Z,2677.50
2022-09-07T12:31:57.268Z,2160.00
2022-09-07T12:32:59.030Z,2491.88
2022-09-07T12:33:43.609Z,3110.62
2022-09-07T12:34:42.599Z,3307.50
2022-09-07T12:35:44.618Z,3076.88
2022-09-07T12:36:43.561Z,2936.25
2022-09-07T12:37:42.565Z,3189.38
2022-09-07T12:38:42.537Z,2986.88
2022-09-07T12:39:42.625Z,3622.50
2022-09-07T12:40:42.538Z,3195.00
2022-09-07T12:41:42.520Z,2925.00
2022-09-07T12:42:42.479Z,3144.38
2022-09-07T12:43:42.492Z,3780.00
2022-09-07T12:44:42.471Z,3841.88
2022-09-07T12:45:42.535Z,3684.38
2022-09-07T12:46:42.470Z,2503.12
2022-09-07T12:47:43.430Z,3273.75
2022-09-07T12:48:43.413Z,3470.62
2022-09-07T12:49:42.476Z,568.12
2022-09-07T12:50:42.534Z,3403.12
2022-09-07T12:52:43.384Z,3448.12
2022-09-07T12:53:42.375Z,3330.00
2022-09-07T12:54:42.351Z,2570.62
2022-09-07T12:56:43.892Z,3099.38
2022-09-07T12:57:42.330Z,3273.75
2022-09-07T12:58:42.314Z,3183.75
2022-09-07T12:59:42.311Z,3386.25
2022-09-07T13:00:42.308Z,3650.62
2022-09-07T13:01:42.402Z,1119.38
2022-09-07T13:02:42.350Z,3673.12
2022-09-07T13:03:51.724Z,3853.12
2022-09-07T13:04:43.257Z,1141.88
2022-09-07T13:05:42.237Z,3543.75
2022-09-07T13:07:43.226Z,3645.00
2022-09-07T13:08:42.207Z,2908.12
2022-09-07T13:09:42.190Z,3622.50
2022-09-07T13:10:42.198Z,3622.50
2022-09-07T13:11:42.198Z,3414.38
2022-09-07T13:12:58.065Z,3060.00
2022-09-07T13:14:43.875Z,3003.75
2022-09-07T13:15:42.170Z,3476.25
2022-09-07T13:17:43.098Z,3543.75
2022-09-07T13:18:42.093Z,3352.50
2022-09-07T13:19:42.090Z,3397.50
2022-09-07T13:20:43.063Z,3622.50
2022-09-07T13:21:42.071Z,3611.25
2022-09-07T13:22:42.055Z,3211.88
2022-09-07T13:23:42.042Z,2919.38
2022-09-07T13:24:49.257Z,3363.75
2022-09-07T13:25:43.009Z,3476.25
2022-09-07T13:26:42.020Z,3448.12
2022-09-07T13:27:43.490Z,2148.75
2022-09-07T13:28:41.979Z,3706.88
2022-09-07T13:29:41.985Z,3667.50
2022-09-07T13:30:42.546Z,3476.25
2022-09-07T13:31:41.955Z,292.50
2022-09-07T13:33:42.947Z,793.12
2022-09-07T13:34:41.960Z,180.00
2022-09-07T13:35:41.928Z,618.75
2022-09-07T13:36:41.936Z,1783.12
2022-09-07T13:37:41.984Z,1867.50
2022-09-07T13:38:41.957Z,1771.88
2022-09-07T13:39:42.982Z,2514.38
2022-09-07T13:40:41.859Z,2610.00
2022-09-07T13:41:41.920Z,360.00
2022-09-07T13:42:41.881Z,2565.00
2022-09-07T13:43:41.814Z,1935.00
2022-09-07T13:44:42.823Z,2103.75
2022-09-07T13:45:42.835Z,1771.88
2022-09-07T13:46:41.814Z,1113.75
2022-09-07T13:47:41.861Z,1518.75
2022-09-07T13:48:41.824Z,1243.12
2022-09-07T13:49:41.750Z,1541.25
2022-09-07T13:50:42.743Z,455.62
2022-09-07T13:51:41.841Z,1878.75
2022-09-07T13:52:41.761Z,309.38
2022-09-07T13:53:41.745Z,230.62
2022-09-07T13:54:41.785Z,213.75
2022-09-07T13:56:03.776Z,258.75
2022-09-07T13:56:42.698Z,219.38
2022-09-07T13:57:41.704Z,264.38